createdAt,value
2018-10-11T00:02:13.816Z,14.30
2018-10-11T00:04:43.344Z,14.23
2018-10-11T00:07:12.352Z,14.23
2018-10-11T00:09:41.473Z,14.27
2018-10-11T00:12:11.002Z,14.73
2018-10-11T00:14:40.088Z,13.57
2018-10-11T00:17:09.084Z,14.10
2018-10-11T00:19:38.045Z,14.83
2018-10-11T00:22:07.761Z,15.30
2018-10-11T00:24:36.747Z,14.47
2018-10-11T00:27:05.826Z,14.23
2018-10-11T00:29:35.390Z,14.40
2018-10-11T00:32:04.339Z,15.90
2018-10-11T00:34:33.297Z,14.63
2018-10-11T00:37:02.356Z,15.10
2018-10-11T00:39:31.870Z,13.83
2018-10-11T00:42:00.860Z,13.93
2018-10-11T00:44:30.459Z,13.70
2018-10-11T00:47:00.263Z,14.70
2018-10-11T00:49:29.704Z,14.50
2018-10-11T00:51:59.239Z,15.00
2018-10-11T00:54:28.231Z,14.63
2018-10-11T00:56:57.188Z,15.00
2018-10-11T00:59:26.285Z,13.50
2018-10-11T01:01:55.210Z,12.23
2018-10-11T01:04:24.132Z,13.37
2018-10-11T01:06:53.105Z,12.20
2018-10-11T01:09:22.295Z,12.43
2018-10-11T01:11:51.219Z,13.00
2018-10-11T01:14:20.437Z,14.77
2018-10-11T01:16:49.379Z,13.20
2018-10-11T01:19:18.399Z,14.23
2018-10-11T01:21:47.251Z,13.63
2018-10-11T01:24:16.404Z,13.93
2018-10-11T01:26:45.307Z,13.80
2018-10-11T01:29:14.410Z,14.33
2018-10-11T01:31:43.316Z,13.97
2018-10-11T01:34:12.305Z,13.90
2018-10-11T01:36:41.193Z,13.67
2018-10-11T01:39:10.328Z,13.53
2018-10-11T01:41:39.309Z,13.03
2018-10-11T01:44:08.481Z,15.07
2018-10-11T01:46:37.285Z,15.17
2018-10-11T01:49:06.278Z,14.77
2018-10-11T01:51:35.449Z,13.60
2018-10-11T01:54:04.487Z,14.63
2018-10-11T01:56:33.579Z,15.33
2018-10-11T01:59:03.400Z,15.20
2018-10-11T02:01:32.316Z,15.07
2018-10-11T02:04:01.537Z,16.43
2018-10-11T02:06:30.518Z,15.97
2018-10-11T02:08:59.446Z,17.13
2018-10-11T02:11:28.496Z,15.53
2018-10-11T02:13:57.411Z,17.27
2018-10-11T02:16:26.309Z,16.80
2018-10-11T02:18:55.279Z,17.20
2018-10-11T02:21:24.185Z,16.10
2018-10-11T02:23:53.200Z,16.17
2018-10-11T02:26:22.180Z,16.57
2018-10-11T02:28:51.275Z,16.47
2018-10-11T02:31:20.132Z,16.47
2018-10-11T02:33:49.426Z,16.33
2018-10-11T02:36:18.341Z,15.63
2018-10-11T02:38:47.395Z,15.97
2018-10-11T02:41:16.436Z,15.60
2018-10-11T02:43:52.078Z,16.10
2018-10-11T02:46:21.065Z,15.77
2018-10-11T02:48:50.028Z,15.37
2018-10-11T02:51:18.942Z,16.47
2018-10-11T02:53:48.040Z,16.27
2018-10-11T02:56:19.425Z,17.67
2018-10-11T02:58:59.437Z,17.67
2018-10-11T03:01:28.568Z,16.73
2018-10-11T03:04:01.910Z,17.27
2018-10-11T03:06:31.528Z,18.30
2018-10-11T03:09:01.210Z,17.13
2018-10-11T03:11:30.554Z,19.10
2018-10-11T03:13:59.732Z,18.50
2018-10-11T03:16:28.649Z,18.23
2018-10-11T03:18:57.660Z,18.40
2018-10-11T03:21:26.615Z,18.60
2018-10-11T03:23:55.589Z,17.83
2018-10-11T03:26:24.557Z,18.80
2018-10-11T03:28:53.526Z,19.73
2018-10-11T03:31:22.383Z,20.53
2018-10-11T03:33:51.469Z,19.33
2018-10-11T03:36:20.467Z,19.93
2018-10-11T03:38:49.593Z,19.93
2018-10-11T03:41:18.501Z,19.17
2018-10-11T03:43:48.252Z,19.13
2018-10-11T03:46:17.234Z,18.43
2018-10-11T03:48:46.242Z,18.67
2018-10-11T03:51:15.135Z,18.13
2018-10-11T03:53:44.161Z,20.20
2018-10-11T03:56:13.296Z,19.73
2018-10-11T03:58:42.301Z,19.97
2018-10-11T04:01:11.505Z,19.17
2018-10-11T04:03:40.637Z,19.63
2018-10-11T04:06:09.608Z,20.23
2018-10-11T04:08:38.755Z,20.70
2018-10-11T04:11:07.641Z,20.37
2018-10-11T04:13:36.767Z,20.20
2018-10-11T04:16:05.742Z,19.13
2018-10-11T04:18:34.639Z,20.63
2018-10-11T04:21:03.680Z,18.50
2018-10-11T04:23:32.800Z,20.53
2018-10-11T04:26:02.050Z,19.43
2018-10-11T04:28:31.015Z,18.67
2018-10-11T04:31:00.453Z,19.60
2018-10-11T04:33:29.755Z,18.83
2018-10-11T04:35:59.313Z,20.87
2018-10-11T04:38:28.835Z,19.60
2018-10-11T04:40:58.065Z,20.07
2018-10-11T04:43:27.115Z,18.57
2018-10-11T04:45:56.217Z,20.47
2018-10-11T04:48:25.199Z,20.63
2018-10-11T04:50:54.170Z,20.87
2018-10-11T04:53:23.235Z,21.43
2018-10-11T04:55:52.188Z,20.73
2018-10-11T04:58:21.117Z,20.83
2018-10-11T05:00:50.167Z,20.47
2018-10-11T05:03:19.123Z,21.13
2018-10-11T05:05:48.125Z,21.83
2018-10-11T05:08:17.198Z,19.03
2018-10-11T05:10:46.425Z,20.07
2018-10-11T05:13:15.877Z,20.70
2018-10-11T05:15:45.548Z,19.50
2018-10-11T05:18:17.556Z,18.67
2018-10-11T05:20:46.671Z,21.23
2018-10-11T05:23:15.644Z,19.37
2018-10-11T05:25:44.908Z,21.53
2018-10-11T05:28:13.905Z,21.77
2018-10-11T05:30:45.157Z,20.77
2018-10-11T05:33:15.172Z,20.97
2018-10-11T05:35:44.476Z,20.47
2018-10-11T05:38:13.710Z,21.07
2018-10-11T05:40:42.664Z,21.87
2018-10-11T05:43:12.485Z,21.00
2018-10-11T05:45:43.676Z,20.80
2018-10-11T05:48:12.738Z,20.93
2018-10-11T05:50:41.900Z,21.17
2018-10-11T05:53:10.908Z,20.70
2018-10-11T05:55:40.270Z,22.37
2018-10-11T05:58:09.566Z,22.40
2018-10-11T06:00:38.618Z,21.47
2018-10-11T06:03:07.768Z,22.43
2018-10-11T06:05:36.986Z,21.20
2018-10-11T06:08:06.698Z,23.97
2018-10-11T06:10:37.810Z,22.90
2018-10-11T06:13:07.937Z,24.30
2018-10-11T06:15:37.392Z,24.13
2018-10-11T06:18:06.707Z,25.23
2018-10-11T06:20:36.090Z,22.90
2018-10-11T06:23:05.358Z,23.70
2018-10-11T06:25:34.425Z,24.17
2018-10-11T06:28:03.585Z,23.53
2018-10-11T06:30:33.816Z,23.30
2018-10-11T06:33:07.402Z,22.47
2018-10-11T06:35:38.648Z,22.47
2018-10-11T06:38:11.279Z,23.07
2018-10-11T06:40:42.209Z,20.80
2018-10-11T06:43:13.149Z,21.87
2018-10-11T06:45:45.354Z,20.47
2018-10-11T06:48:17.258Z,21.77
2018-10-11T06:50:48.689Z,22.07
2018-10-11T06:53:19.936Z,20.50
2018-10-11T06:55:52.418Z,21.40
2018-10-11T06:58:23.805Z,21.20
2018-10-11T07:00:56.034Z,20.90
2018-10-11T07:03:27.113Z,21.90
2018-10-11T07:05:58.636Z,21.70
2018-10-11T07:08:30.444Z,20.83
2018-10-11T07:11:02.119Z,21.60
2018-10-11T07:13:33.485Z,21.27
2018-10-11T07:16:05.246Z,22.43
2018-10-11T07:18:34.294Z,20.07
2018-10-11T07:21:03.699Z,20.77
2018-10-11T07:23:32.996Z,20.57
2018-10-11T07:26:03.996Z,21.17
2018-10-11T07:28:33.280Z,20.13
2018-10-11T07:31:02.252Z,19.93
2018-10-11T07:33:31.565Z,20.60
2018-10-11T07:36:01.419Z,21.53
2018-10-11T07:38:30.511Z,20.93
2018-10-11T07:41:00.019Z,21.23
2018-10-11T07:43:29.549Z,20.70
2018-10-11T07:45:58.821Z,20.93
2018-10-11T07:48:27.857Z,20.00
2018-10-11T07:50:57.137Z,21.17
2018-10-11T07:53:26.220Z,20.93
2018-10-11T07:55:55.594Z,20.33
2018-10-11T07:58:24.950Z,20.77
2018-10-11T08:00:54.221Z,19.50
2018-10-11T08:03:23.715Z,21.10
2018-10-11T08:05:52.776Z,21.07
2018-10-11T08:08:21.918Z,20.63
2018-10-11T08:10:51.277Z,20.73
2018-10-11T08:13:20.650Z,21.67
2018-10-11T08:15:49.909Z,20.90
2018-10-11T08:18:19.363Z,20.27
2018-10-11T08:20:48.698Z,19.47
2018-10-11T08:23:17.829Z,19.67
2018-10-11T08:25:47.480Z,19.37
2018-10-11T08:28:16.554Z,20.13
2018-10-11T08:30:46.122Z,19.53
2018-10-11T08:33:15.432Z,19.13
2018-10-11T08:35:44.369Z,19.33
2018-10-11T08:38:13.818Z,18.27
2018-10-11T08:40:42.919Z,18.00
2018-10-11T08:43:12.035Z,18.77
2018-10-11T08:45:41.188Z,17.67
2018-10-11T08:48:11.096Z,18.27
2018-10-11T08:50:40.228Z,18.30
2018-10-11T08:53:10.024Z,18.17
2018-10-11T08:55:39.216Z,16.90
2018-10-11T08:58:08.799Z,17.60
2018-10-11T09:00:37.970Z,17.03
2018-10-11T09:03:08.071Z,17.53
2018-10-11T09:05:37.263Z,17.67
2018-10-11T09:08:07.405Z,17.63
2018-10-11T09:10:38.450Z,17.50
2018-10-11T09:13:06.620Z,16.63
2018-10-11T09:15:35.657Z,16.57
2018-10-11T09:18:05.010Z,17.23
2018-10-11T09:20:34.549Z,17.07
2018-10-11T09:23:04.073Z,17.23
2018-10-11T09:25:33.272Z,17.73
2018-10-11T09:28:02.399Z,17.50
2018-10-11T09:30:32.001Z,17.07
2018-10-11T09:33:01.505Z,17.53
2018-10-11T09:35:30.800Z,17.37
2018-10-11T09:38:00.171Z,17.17
2018-10-11T09:40:29.730Z,16.67
2018-10-11T09:42:59.335Z,15.67
2018-10-11T09:45:28.909Z,17.10
2018-10-11T09:47:58.170Z,16.63
2018-10-11T09:50:27.259Z,16.47
2018-10-11T09:52:56.629Z,16.80
2018-10-11T09:55:25.992Z,15.60
2018-10-11T09:57:55.579Z,15.43
2018-10-11T10:00:30.043Z,15.40
2018-10-11T10:02:59.395Z,15.13
2018-10-11T10:05:28.955Z,16.00
2018-10-11T10:07:58.372Z,15.40
2018-10-11T10:10:28.530Z,14.83
2018-10-11T10:12:57.981Z,15.27
2018-10-11T10:15:27.358Z,14.07
2018-10-11T10:17:57.019Z,15.18
2018-10-11T10:20:26.195Z,14.30
2018-10-11T10:22:55.280Z,14.25
2018-10-11T10:25:24.862Z,13.85
2018-10-11T10:27:54.018Z,14.25
2018-10-11T10:30:28.516Z,14.50
2018-10-11T10:32:57.744Z,15.20
2018-10-11T10:35:28.059Z,14.63
2018-10-11T10:37:57.524Z,13.65
2018-10-11T10:40:27.089Z,13.62
2018-10-11T10:42:56.527Z,14.78
2018-10-11T10:45:26.049Z,14.23
2018-10-11T10:47:55.374Z,14.07
2018-10-11T10:50:24.842Z,13.38
2018-10-11T10:52:54.494Z,12.82
2018-10-11T10:55:23.808Z,13.80
2018-10-11T10:57:53.170Z,13.45
2018-10-11T11:00:22.496Z,12.98
2018-10-11T11:02:51.881Z,13.72
2018-10-11T11:05:21.104Z,14.23
2018-10-11T11:07:50.359Z,13.43
2018-10-11T11:10:19.772Z,12.73
2018-10-11T11:12:49.712Z,13.88
2018-10-11T11:15:18.785Z,13.28
2018-10-11T11:17:47.852Z,12.85
2018-10-11T11:20:17.549Z,13.45
2018-10-11T11:22:47.386Z,14.33
2018-10-11T11:25:16.624Z,13.80
2018-10-11T11:27:45.921Z,14.13
2018-10-11T11:30:15.453Z,13.28
2018-10-11T11:32:44.658Z,14.28
2018-10-11T11:35:13.918Z,14.90
2018-10-11T11:37:43.340Z,14.50
2018-10-11T11:40:12.494Z,14.78
2018-10-11T11:42:41.908Z,15.28
2018-10-11T11:45:11.169Z,14.93
2018-10-11T11:47:40.256Z,15.72
2018-10-11T11:50:09.517Z,14.75
2018-10-11T11:52:38.783Z,14.47
2018-10-11T11:55:08.170Z,13.80
2018-10-11T11:57:37.683Z,14.00
2018-10-11T12:00:07.012Z,13.20
2018-10-11T12:02:36.545Z,13.60
2018-10-11T12:05:06.103Z,12.35
2018-10-11T12:07:35.554Z,13.15
2018-10-11T12:10:05.137Z,12.68
2018-10-11T12:13:06.692Z,13.28
2018-10-11T12:15:36.761Z,12.58
2018-10-11T12:18:07.092Z,13.15
2018-10-11T12:20:37.804Z,12.93
2018-10-11T12:23:08.013Z,12.35
2018-10-11T12:25:37.365Z,12.82
2018-10-11T12:28:06.923Z,13.35
2018-10-11T12:30:36.225Z,12.40
2018-10-11T12:33:05.632Z,13.57
2018-10-11T12:35:35.028Z,13.20
2018-10-11T12:38:04.539Z,13.37
2018-10-11T12:40:33.838Z,11.73
2018-10-11T12:43:03.342Z,11.57
2018-10-11T12:45:32.758Z,12.33
2018-10-11T12:48:02.278Z,12.63
2018-10-11T12:50:31.773Z,11.97
2018-10-11T12:53:01.708Z,12.77
2018-10-11T12:55:31.092Z,13.37
2018-10-11T12:58:00.490Z,11.73
2018-10-11T13:00:30.042Z,11.70
2018-10-11T13:02:59.486Z,11.47
2018-10-11T13:05:28.697Z,12.13
2018-10-11T13:07:57.914Z,12.10
2018-10-11T13:10:27.376Z,11.43
2018-10-11T13:13:05.221Z,11.43
2018-10-11T13:15:25.913Z,11.30
2018-10-11T13:17:55.103Z,11.30
2018-10-11T13:20:24.359Z,11.50
2018-10-11T13:22:53.536Z,11.37
2018-10-11T13:25:22.476Z,10.67
2018-10-11T13:27:51.411Z,10.97
2018-10-11T13:30:20.596Z,10.80
2018-10-11T13:32:49.745Z,11.03
2018-10-11T13:35:18.938Z,10.60
2018-10-11T13:37:47.930Z,10.80
2018-10-11T13:40:17.198Z,11.27
2018-10-11T13:42:46.232Z,11.33
2018-10-11T13:45:15.327Z,10.73
2018-10-11T13:47:45.459Z,11.60
2018-10-11T13:50:13.972Z,10.50
2018-10-11T13:52:43.299Z,10.80
2018-10-11T13:55:15.431Z,10.27
2018-10-11T13:57:42.503Z,10.80
2018-10-11T14:00:11.955Z,10.67
2018-10-11T14:02:41.238Z,10.33
2018-10-11T14:05:10.366Z,10.30
2018-10-11T14:07:39.631Z,10.27
2018-10-11T14:10:08.852Z,9.57
2018-10-11T14:12:38.065Z,9.50
2018-10-11T14:15:08.862Z,9.93
2018-10-11T14:17:38.085Z,10.67
2018-10-11T14:20:07.559Z,9.60
2018-10-11T14:22:37.195Z,9.43
2018-10-11T14:25:06.902Z,9.20
2018-10-11T14:27:36.158Z,8.70
2018-10-11T14:30:05.634Z,9.13
2018-10-11T14:32:34.670Z,8.87
2018-10-11T14:35:04.124Z,9.30
2018-10-11T14:37:36.193Z,8.47
2018-10-11T14:40:05.605Z,8.47
2018-10-11T14:42:34.674Z,8.33
2018-10-11T14:45:04.032Z,8.90
2018-10-11T14:47:33.031Z,9.00
2018-10-11T14:50:02.173Z,7.87
2018-10-11T14:52:31.267Z,8.83
2018-10-11T14:55:00.487Z,8.13
2018-10-11T14:57:29.767Z,9.10
2018-10-11T14:59:58.815Z,8.60
2018-10-11T15:02:27.810Z,8.70
2018-10-11T15:04:57.167Z,8.37
2018-10-11T15:07:26.345Z,8.23
2018-10-11T15:09:55.797Z,8.73
2018-10-11T15:12:25.033Z,8.90
2018-10-11T15:14:54.313Z,8.83
2018-10-11T15:17:23.698Z,8.33
2018-10-11T15:19:53.091Z,8.63
2018-10-11T15:22:23.644Z,8.87
2018-10-11T15:24:52.779Z,8.53
2018-10-11T15:27:21.893Z,9.03
2018-10-11T15:29:51.028Z,9.13
2018-10-11T15:32:20.518Z,8.50
2018-10-11T15:34:49.717Z,8.87
2018-10-11T15:37:18.939Z,8.57
2018-10-11T15:39:48.032Z,9.10
2018-10-11T15:42:17.206Z,8.80
2018-10-11T15:44:46.449Z,8.63
2018-10-11T15:47:15.713Z,7.87
2018-10-11T15:49:44.756Z,8.87
2018-10-11T15:52:14.142Z,8.23
2018-10-11T15:54:43.207Z,8.23
2018-10-11T15:57:12.208Z,7.90
2018-10-11T15:59:41.506Z,7.57
2018-10-11T16:02:10.645Z,7.87
2018-10-11T16:04:39.593Z,7.30
2018-10-11T16:07:08.507Z,7.50
2018-10-11T16:09:37.804Z,6.97
2018-10-11T16:12:06.869Z,7.40
2018-10-11T16:14:35.805Z,7.73
2018-10-11T16:17:04.805Z,7.07
2018-10-11T16:19:34.371Z,7.37
2018-10-11T16:22:04.810Z,7.30
2018-10-11T16:24:33.976Z,7.33
2018-10-11T16:27:03.328Z,7.40
2018-10-11T16:29:32.677Z,6.87
2018-10-11T16:32:03.311Z,7.03
2018-10-11T16:34:32.711Z,7.47
2018-10-11T16:37:02.456Z,7.70
2018-10-11T16:39:32.498Z,7.60
2018-10-11T16:42:01.957Z,7.67
2018-10-11T16:44:31.199Z,7.87
2018-10-11T16:47:01.383Z,8.23
2018-10-11T16:49:30.793Z,7.93
2018-10-11T16:52:00.467Z,8.70
2018-10-11T16:54:29.789Z,8.93
2018-10-11T16:57:00.013Z,9.00
2018-10-11T16:59:29.237Z,9.40
2018-10-11T17:01:58.642Z,9.87
2018-10-11T17:04:28.108Z,9.90
2018-10-11T17:06:57.253Z,10.07
2018-10-11T17:09:27.286Z,10.80
2018-10-11T17:11:56.413Z,10.77
2018-10-11T17:14:26.001Z,10.20
2018-10-11T17:16:56.641Z,10.70
2018-10-11T17:19:25.978Z,10.47
2018-10-11T17:21:55.737Z,11.03
2018-10-11T17:24:25.037Z,11.13
2018-10-11T17:26:54.438Z,10.10
2018-10-11T17:29:23.824Z,11.40
2018-10-11T17:31:53.678Z,11.30
2018-10-11T17:34:22.629Z,10.43
2018-10-11T17:36:51.581Z,11.00
2018-10-11T17:39:20.454Z,12.13
2018-10-11T17:41:49.561Z,13.07
2018-10-11T17:44:18.650Z,13.00
2018-10-11T17:46:47.620Z,12.97
2018-10-11T17:49:16.507Z,13.83
2018-10-11T17:51:45.518Z,13.43
2018-10-11T17:54:14.435Z,13.90
2018-10-11T17:56:43.502Z,14.90
2018-10-11T17:59:12.549Z,14.23
2018-10-11T18:01:41.756Z,15.20
2018-10-11T18:04:10.694Z,14.30
2018-10-11T18:06:39.876Z,13.53
2018-10-11T18:09:10.194Z,13.17
2018-10-11T18:11:39.161Z,14.73
2018-10-11T18:14:09.025Z,14.17
2018-10-11T18:16:38.511Z,14.87
2018-10-11T18:19:07.609Z,15.33
2018-10-11T18:21:36.806Z,14.80
2018-10-11T18:24:05.798Z,14.43
2018-10-11T18:26:35.113Z,14.83
2018-10-11T18:29:04.171Z,15.00
2018-10-11T18:31:33.308Z,15.80
2018-10-11T18:34:02.501Z,15.50
2018-10-11T18:36:31.634Z,14.70
2018-10-11T18:39:00.759Z,14.10
2018-10-11T18:41:30.130Z,14.77
2018-10-11T18:43:59.239Z,15.30
2018-10-11T18:46:28.483Z,14.17
2018-10-11T18:48:57.599Z,14.80
2018-10-11T18:51:26.647Z,14.70
2018-10-11T18:53:55.776Z,15.07
2018-10-11T18:56:25.195Z,14.50
2018-10-11T18:58:54.263Z,14.43
2018-10-11T19:01:23.691Z,14.90
2018-10-11T19:03:53.287Z,14.70
2018-10-11T19:06:22.960Z,15.37
2018-10-11T19:08:52.001Z,14.63
2018-10-11T19:11:21.266Z,15.53
2018-10-11T19:13:50.921Z,16.17
2018-10-11T19:16:20.456Z,15.20
2018-10-11T19:18:49.956Z,15.20
2018-10-11T19:21:19.556Z,16.70
2018-10-11T19:23:48.911Z,15.07
2018-10-11T19:26:18.432Z,15.13
2018-10-11T19:28:47.665Z,16.20
2018-10-11T19:31:16.858Z,15.60
2018-10-11T19:33:45.821Z,15.23
2018-10-11T19:36:14.953Z,14.37
2018-10-11T19:38:43.914Z,14.57
2018-10-11T19:41:12.920Z,14.97
2018-10-11T19:43:42.010Z,16.03
2018-10-11T19:46:11.586Z,15.13
2018-10-11T19:48:40.852Z,15.30
2018-10-11T19:51:10.133Z,15.30
2018-10-11T19:53:39.267Z,15.43
2018-10-11T19:56:08.340Z,15.83
2018-10-11T19:58:37.344Z,16.07
2018-10-11T20:01:06.557Z,15.93
2018-10-11T20:03:35.536Z,17.43
2018-10-11T20:06:04.667Z,17.63
2018-10-11T20:08:33.933Z,17.97
2018-10-11T20:11:02.836Z,16.40
2018-10-11T20:13:31.895Z,17.70
2018-10-11T20:16:01.124Z,17.73
2018-10-11T20:18:30.401Z,16.67
2018-10-11T20:20:59.544Z,17.20
2018-10-11T20:23:28.575Z,17.87
2018-10-11T20:25:57.899Z,17.40
2018-10-11T20:28:27.204Z,17.63
2018-10-11T20:30:59.173Z,18.03
2018-10-11T20:33:28.577Z,18.10
2018-10-11T20:35:58.348Z,17.37
2018-10-11T20:38:28.269Z,17.57
2018-10-11T20:40:57.634Z,17.93
2018-10-11T20:43:27.407Z,18.13
2018-10-11T20:45:56.790Z,17.50
2018-10-11T20:48:26.392Z,17.30
2018-10-11T20:50:55.460Z,18.40
2018-10-11T20:53:24.714Z,18.10
2018-10-11T20:55:54.181Z,17.33
2018-10-11T20:58:23.117Z,17.97
2018-10-11T21:00:52.022Z,17.20
2018-10-11T21:03:21.221Z,17.73
2018-10-11T21:05:50.277Z,16.97
2018-10-11T21:08:19.433Z,17.57
2018-10-11T21:10:48.331Z,17.93
2018-10-11T21:13:17.286Z,17.90
2018-10-11T21:15:46.191Z,17.57
2018-10-11T21:18:15.222Z,16.93
2018-10-11T21:20:44.139Z,18.30
2018-10-11T21:23:13.100Z,18.37
2018-10-11T21:25:42.038Z,17.33
2018-10-11T21:28:11.006Z,17.23
2018-10-11T21:30:40.020Z,17.80
2018-10-11T21:33:09.033Z,17.63
2018-10-11T21:35:37.948Z,17.83
2018-10-11T21:38:07.382Z,17.53
2018-10-11T21:40:36.700Z,17.17
2018-10-11T21:43:05.977Z,16.53
2018-10-11T21:45:34.951Z,16.87
2018-10-11T21:48:04.082Z,17.80
2018-10-11T21:50:33.121Z,16.80
2018-10-11T21:53:02.138Z,16.87
2018-10-11T21:55:31.081Z,16.90
2018-10-11T21:58:00.124Z,17.73
2018-10-11T22:00:34.349Z,17.37
2018-10-11T22:03:03.322Z,17.87
2018-10-11T22:05:32.272Z,17.67
2018-10-11T22:08:01.234Z,17.40
2018-10-11T22:10:30.173Z,17.60
2018-10-11T22:12:59.284Z,17.37
2018-10-11T22:15:28.202Z,17.90
2018-10-11T22:17:57.165Z,16.73
2018-10-11T22:20:26.091Z,17.43
2018-10-11T22:22:55.290Z,16.17
2018-10-11T22:25:24.549Z,16.17
2018-10-11T22:27:54.294Z,16.47
2018-10-11T22:30:23.391Z,17.53
2018-10-11T22:32:52.563Z,16.37
2018-10-11T22:35:21.561Z,15.43
2018-10-11T22:38:00.866Z,15.97
2018-10-11T22:40:30.231Z,15.73
2018-10-11T22:42:59.631Z,14.97
2018-10-11T22:45:28.825Z,15.53
2018-10-11T22:47:57.826Z,15.17
2018-10-11T22:50:27.731Z,15.47
2018-10-11T22:52:57.193Z,16.03
2018-10-11T22:55:27.175Z,14.97
2018-10-11T22:57:56.203Z,14.93
2018-10-11T23:00:25.198Z,15.50
2018-10-11T23:02:54.339Z,14.20
2018-10-11T23:05:23.688Z,15.67
2018-10-11T23:07:52.670Z,14.30
2018-10-11T23:10:21.873Z,15.43
2018-10-11T23:12:50.877Z,14.67
2018-10-11T23:15:19.989Z,14.60
2018-10-11T23:17:48.934Z,14.20
2018-10-11T23:20:18.001Z,15.27
2018-10-11T23:22:46.919Z,14.30
2018-10-11T23:25:15.926Z,15.60
2018-10-11T23:27:44.998Z,14.63
2018-10-11T23:30:14.003Z,14.47
2018-10-11T23:32:43.340Z,14.73
2018-10-11T23:35:12.575Z,14.93
2018-10-11T23:37:41.674Z,14.37
2018-10-11T23:40:11.983Z,14.80
2018-10-11T23:42:41.948Z,13.30
2018-10-11T23:45:12.275Z,13.60
2018-10-11T23:47:42.197Z,12.77
2018-10-11T23:50:11.253Z,13.77
2018-10-11T23:52:40.561Z,14.03
2018-10-11T23:55:09.998Z,13.50
2018-10-11T23:57:38.941Z,13.40
